Terminal Aerodrome Forecast
Issued by NWS

Home | Current Version | Previous Version | Text Only | Print | Product List | Glossary Off
Versions: 1 2 3 4 5 6 7 8 9 10 11 12 13 14 15

000
FTUS43 KIWX 271700
TAFSBN
TAF
KSBN 271732Z 2718/2818 04006KT P6SM FEW030 SCT060
     FM280000 VRB03KT P6SM FEW200
     FM281500 16008KT P6SM SCT100 BKN200=

USA.gov is the U.S. government's official web portal to all federal, state and local government web resources and services.